Time,TemperatureF,DewpointF,PressureIn,WindDirection,WindDirectionDegrees,WindSpeedMPH,WindSpeedGustMPH,Humidity,HourlyPrecipIn,Conditions,Clouds,dailyrainin,SoftwareType,DateUTC
2013-01-19 00:00:00,33.3,27.5,30.50,NE,49,0.0,0.0,79,0.00,,---,0.00,VWS V14.00,2013-01-19 05:00:00,
2013-01-19 00:01:00,33.3,27.5,30.50,NE,49,0.0,0.0,79,0.00,,---,0.00,VWS V14.00,2013-01-19 05:01:00,
2013-01-19 00:06:00,33.0,27.2,30.51,NE,50,0.0,1.0,79,0.00,,---,0.00,VWS V14.00,2013-01-19 05:06:00,
2013-01-19 00:11:00,32.7,27.2,30.51,NE,50,0.0,1.0,80,0.00,,---,0.00,VWS V14.00,2013-01-19 05:11:00,
2013-01-19 00:16:00,32.5,27.0,30.51,NE,39,1.0,2.0,80,0.00,,---,0.00,VWS V14.00,2013-01-19 05:16:00,
2013-01-19 00:21:00,32.8,27.0,30.51,ENE,57,1.0,5.0,79,0.00,,---,0.00,VWS V14.00,2013-01-19 05:21:00,
2013-01-19 00:26:00,33.3,27.2,30.51,NE,52,1.0,5.0,78,0.00,,---,0.00,VWS V14.00,2013-01-19 05:26:00,
2013-01-19 00:31:00,33.5,27.1,30.51,ENE,71,0.0,5.0,77,0.00,,---,0.00,VWS V14.00,2013-01-19 05:31:00,
2013-01-19 00:36:00,33.9,27.1,30.51,NE,39,2.0,6.0,76,0.00,,---,0.00,VWS V14.00,2013-01-19 05:36:00,
2013-01-19 00:41:00,34.2,27.4,30.51,NE,50,2.0,6.0,76,0.00,,---,0.00,VWS V14.00,2013-01-19 05:41:00,
2013-01-19 00:46:00,34.6,27.8,30.51,NE,41,2.0,6.0,76,0.00,,---,0.00,VWS V14.00,2013-01-19 05:46:00,
2013-01-19 00:51:00,34.8,28.0,30.51,ENE,59,5.0,6.0,76,0.00,,---,0.00,VWS V14.00,2013-01-19 05:51:00,
2013-01-19 00:56:00,35.1,28.3,30.51,NE,45,2.0,6.0,76,0.00,,---,0.00,VWS V14.00,2013-01-19 05:56:00,
2013-01-19 01:01:00,35.3,28.2,30.51,NNE,14,2.0,6.0,75,0.00,,---,0.00,VWS V14.00,2013-01-19 06:01:00,
2013-01-19 01:06:00,35.3,28.5,30.51,NE,39,4.0,7.0,76,0.00,,---,0.00,VWS V14.00,2013-01-19 06:06:00,
2013-01-19 01:11:00,35.0,28.2,30.51,NNE,12,2.0,7.0,76,0.00,,---,0.00,VWS V14.00,2013-01-19 06:11:00,
2013-01-19 01:16:00,34.0,27.9,30.51,NNE,14,0.0,7.0,78,0.00,,---,0.00,VWS V14.00,2013-01-19 06:16:00,
2013-01-19 01:21:00,33.1,27.6,30.51,NNE,14,1.0,7.0,80,0.00,,---,0.00,VWS V14.00,2013-01-19 06:21:00,
2013-01-19 01:26:00,32.6,27.7,30.51,NNE,14,0.0,7.0,82,0.00,,---,0.00,VWS V14.00,2013-01-19 06:26:00,
2013-01-19 01:32:00,32.4,27.8,30.51,NNE,14,1.0,2.0,83,0.00,,---,0.00,VWS V14.00,2013-01-19 06:32:00,
2013-01-19 01:37:00,32.3,27.7,30.50,North,5,2.0,3.0,83,0.00,,---,0.00,VWS V14.00,2013-01-19 06:37:00,
2013-01-19 01:42:00,32.1,27.8,30.50,North,355,3.0,4.0,84,0.00,,---,0.00,VWS V14.00,2013-01-19 06:42:00,
2013-01-19 01:47:00,32.1,27.8,30.50,North,355,3.0,4.0,84,0.00,,---,0.00,VWS V14.00,2013-01-19 06:47:00,
2013-01-19 01:52:00,32.0,27.7,30.50,North,352,2.0,4.0,84,0.00,,---,0.00,VWS V14.00,2013-01-19 06:52:00,
2013-01-19 01:57:00,31.7,27.7,30.50,North,352,3.0,4.0,85,0.00,,---,0.00,VWS V14.00,2013-01-19 06:57:00,
2013-01-19 02:02:00,31.7,27.7,30.50,NNE,12,3.0,5.0,85,0.00,,---,0.00,VWS V14.00,2013-01-19 07:02:00,
2013-01-19 02:07:00,31.7,27.7,30.49,North,0,2.0,5.0,85,0.00,,---,0.00,VWS V14.00,2013-01-19 07:07:00,
2013-01-19 02:12:00,31.8,27.8,30.50,North,5,2.0,5.0,85,0.00,,---,0.00,VWS V14.00,2013-01-19 07:12:00,
2013-01-19 02:17:00,31.7,27.7,30.50,North,4,3.0,5.0,85,0.00,,---,0.00,VWS V14.00,2013-01-19 07:17:00,
2013-01-19 02:22:00,31.6,27.9,30.49,NNW,346,4.0,5.0,86,0.00,,---,0.00,VWS V14.00,2013-01-19 07:22:00,
2013-01-19 02:27:00,31.3,27.9,30.49,North,4,3.0,5.0,87,0.00,,---,0.00,VWS V14.00,2013-01-19 07:27:00,
2013-01-19 02:32:00,31.2,27.8,30.49,North,1,2.0,4.0,87,0.00,,---,0.00,VWS V14.00,2013-01-19 07:32:00,
2013-01-19 02:37:00,31.3,28.2,30.49,North,3,2.0,4.0,88,0.00,,---,0.00,VWS V14.00,2013-01-19 07:37:00,
2013-01-19 02:42:00,31.4,28.3,30.49,North,3,1.0,4.0,88,0.00,,---,0.00,VWS V14.00,2013-01-19 07:42:00,
2013-01-19 02:47:00,31.4,28.3,30.49,North,3,0.0,4.0,88,0.00,,---,0.00,VWS V14.00,2013-01-19 07:47:00,
2013-01-19 02:52:00,31.3,28.2,30.49,North,0,2.0,4.0,88,0.00,,---,0.00,VWS V14.00,2013-01-19 07:52:00,
2013-01-19 02:57:00,31.2,28.3,30.48,North,356,2.0,4.0,89,0.00,,---,0.00,VWS V14.00,2013-01-19 07:57:00,
2013-01-19 03:02:00,31.1,28.2,30.48,North,354,2.0,4.0,89,0.00,,---,0.00,VWS V14.00,2013-01-19 08:02:00,
2013-01-19 03:07:00,31.0,28.1,30.48,North,353,2.0,4.0,89,0.00,,---,0.00,VWS V14.00,2013-01-19 08:07:00,
2013-01-19 03:12:00,31.0,28.1,30.48,NNE,16,3.0,5.0,89,0.00,,---,0.00,VWS V14.00,2013-01-19 08:12:00,
2013-01-19 03:17:00,31.1,28.5,30.49,NNE,19,3.0,5.0,90,0.00,,---,0.00,VWS V14.00,2013-01-19 08:17:00,
2013-01-19 03:22:00,31.2,28.6,30.49,NNE,16,2.0,5.0,90,0.00,,---,0.00,VWS V14.00,2013-01-19 08:22:00,
2013-01-19 03:27:00,31.3,28.7,30.49,NNE,24,2.0,5.0,90,0.00,,---,0.00,VWS V14.00,2013-01-19 08:27:00,
2013-01-19 03:32:00,31.1,28.2,30.48,NNE,15,4.0,4.0,89,0.00,,---,0.00,VWS V14.00,2013-01-19 08:32:00,
2013-01-19 03:37:00,30.9,28.3,30.48,NNE,15,1.0,4.0,90,0.00,,---,0.00,VWS V14.00,2013-01-19 08:37:00,
2013-01-19 03:42:00,30.7,28.1,30.48,NNE,15,1.0,4.0,90,0.00,,---,0.00,VWS V14.00,2013-01-19 08:42:00,
2013-01-19 03:47:00,30.6,28.0,30.48,NNE,14,3.0,4.0,90,0.00,,---,0.00,VWS V14.00,2013-01-19 08:47:00,
2013-01-19 03:52:00,30.6,28.0,30.48,NNE,14,0.0,4.0,90,0.00,,---,0.00,VWS V14.00,2013-01-19 08:52:00,
2013-01-19 03:57:00,30.6,28.0,30.48,NNE,14,0.0,4.0,90,0.00,,---,0.00,VWS V14.00,2013-01-19 08:57:00,
2013-01-19 04:02:00,30.5,27.9,30.48,NNE,14,0.0,1.0,90,0.00,,---,0.00,VWS V14.00,2013-01-19 09:02:00,
2013-01-19 04:07:00,30.5,27.9,30.48,NNE,14,0.0,2.0,90,0.00,,---,0.00,VWS V14.00,2013-01-19 09:07:00,
2013-01-19 04:12:00,30.5,27.9,30.48,NNE,14,0.0,2.0,90,0.00,,---,0.00,VWS V14.00,2013-01-19 09:12:00,
2013-01-19 04:17:00,30.5,27.9,30.48,NNE,14,0.0,2.0,90,0.00,,---,0.00,VWS V14.00,2013-01-19 09:17:00,
2013-01-19 04:22:00,30.4,27.8,30.48,NNE,14,0.0,2.0,90,0.00,,---,0.00,VWS V14.00,2013-01-19 09:22:00,
2013-01-19 04:27:00,30.4,28.1,30.48,NNE,14,0.0,2.0,91,0.00,,---,0.00,VWS V14.00,2013-01-19 09:27:00,
2013-01-19 04:32:00,30.2,27.6,30.48,NNE,14,1.0,2.0,90,0.00,,---,0.00,VWS V14.00,2013-01-19 09:32:00,
2013-01-19 04:37:00,30.2,27.9,30.48,NNE,14,1.0,2.0,91,0.00,,---,0.00,VWS V14.00,2013-01-19 09:37:00,
2013-01-19 04:42:00,30.3,28.0,30.48,NNE,14,0.0,2.0,91,0.00,,---,0.00,VWS V14.00,2013-01-19 09:42:00,
2013-01-19 04:47:00,30.3,27.7,30.48,NNE,14,0.0,2.0,90,0.00,,---,0.00,VWS V14.00,2013-01-19 09:47:00,
2013-01-19 04:52:00,30.2,27.6,30.48,NNE,14,0.0,2.0,90,0.00,,---,0.00,VWS V14.00,2013-01-19 09:52:00,
2013-01-19 04:57:00,30.1,27.8,30.47,NNE,14,2.0,2.0,91,0.00,,---,0.00,VWS V14.00,2013-01-19 09:57:00,
2013-01-19 05:02:00,29.9,27.6,30.47,NNE,14,3.0,3.0,91,0.00,,---,0.00,VWS V14.00,2013-01-19 10:02:00,
2013-01-19 05:07:00,29.7,27.4,30.47,NNW,346,4.0,6.0,91,0.00,,---,0.00,VWS V14.00,2013-01-19 10:07:00,
2013-01-19 05:12:00,29.7,27.4,30.46,North,349,6.0,6.0,91,0.00,,---,0.00,VWS V14.00,2013-01-19 10:12:00,
2013-01-19 05:17:00,30.1,28.1,30.46,North,8,4.0,8.0,92,0.00,,---,0.00,VWS V14.00,2013-01-19 10:17:00,
2013-01-19 05:22:00,30.7,28.4,30.46,North,349,5.0,8.0,91,0.00,,---,0.00,VWS V14.00,2013-01-19 10:22:00,
2013-01-19 05:27:00,31.0,28.4,30.46,North,353,2.0,8.0,90,0.00,,---,0.00,VWS V14.00,2013-01-19 10:27:00,
2013-01-19 05:32:00,31.1,28.5,30.47,North,353,0.0,3.0,90,0.00,,---,0.00,VWS V14.00,2013-01-19 10:32:00,
2013-01-19 05:37:00,31.1,28.2,30.47,NNE,16,3.0,3.0,89,0.00,,---,0.00,VWS V14.00,2013-01-19 10:37:00,
2013-01-19 05:42:00,31.4,28.8,30.47,North,10,3.0,4.0,90,0.00,,---,0.00,VWS V14.00,2013-01-19 10:42:00,
2013-01-19 05:47:00,31.7,28.6,30.47,North,3,1.0,6.0,88,0.00,,---,0.00,VWS V14.00,2013-01-19 10:47:00,
2013-01-19 05:52:00,31.7,28.6,30.47,North,2,4.0,6.0,88,0.00,,---,0.00,VWS V14.00,2013-01-19 10:52:00,
2013-01-19 05:58:00,31.6,28.5,30.47,NNE,13,4.0,6.0,88,0.00,,---,0.00,VWS V14.00,2013-01-19 10:58:00,
2013-01-19 06:03:00,31.4,28.3,30.47,North,6,2.0,4.0,88,0.00,,---,0.00,VWS V14.00,2013-01-19 11:03:00,
2013-01-19 06:08:00,31.4,28.5,30.47,North,6,2.0,4.0,89,0.00,,---,0.00,VWS V14.00,2013-01-19 11:08:00,
2013-01-19 06:12:00,31.3,28.4,30.47,North,6,1.0,4.0,89,0.00,,---,0.00,VWS V14.00,2013-01-19 11:12:00,
2013-01-19 07:47:00,33.3,29.6,30.48,North,359,2.0,4.0,86,0.00,,---,0.00,VWS V14.00,2013-01-19 12:47:00,
2013-01-19 07:48:00,33.3,29.6,30.48,North,359,2.0,4.0,86,0.00,,---,0.00,VWS V14.00,2013-01-19 12:48:00,
2013-01-19 07:53:00,33.4,29.7,30.48,North,0,2.0,4.0,86,0.00,,---,0.00,VWS V14.00,2013-01-19 12:53:00,
2013-01-19 07:58:00,33.5,29.8,30.48,North,358,1.0,1.0,86,0.00,,---,0.00,VWS V14.00,2013-01-19 12:58:00,
2013-01-19 08:03:00,33.6,29.9,30.48,North,358,2.0,3.0,86,0.00,,---,0.00,VWS V14.00,2013-01-19 13:03:00,
2013-01-19 08:08:00,33.7,30.0,30.48,North,358,2.0,3.0,86,0.00,,---,0.00,VWS V14.00,2013-01-19 13:08:00,
2013-01-19 08:13:00,33.9,30.2,30.49,NNE,16,1.0,4.0,86,0.00,,---,0.00,VWS V14.00,2013-01-19 13:13:00,
2013-01-19 08:18:00,34.0,30.0,30.48,North,8,2.0,5.0,85,0.00,,---,0.00,VWS V14.00,2013-01-19 13:18:00,
2013-01-19 08:23:00,34.1,30.1,30.48,NNE,26,3.0,5.0,85,0.00,,---,0.00,VWS V14.00,2013-01-19 13:23:00,
2013-01-19 08:28:00,34.4,30.1,30.48,NNE,24,5.0,7.0,84,0.00,,---,0.00,VWS V14.00,2013-01-19 13:28:00,
2013-01-19 08:33:00,34.6,30.0,30.48,NNE,15,3.0,7.0,83,0.00,,---,0.00,VWS V14.00,2013-01-19 13:33:00,
2013-01-19 08:38:00,34.9,30.3,30.48,NNE,18,5.0,7.0,83,0.00,,---,0.00,VWS V14.00,2013-01-19 13:38:00,
2013-01-19 08:43:00,35.1,30.2,30.48,North,6,4.0,7.0,82,0.00,,---,0.00,VWS V14.00,2013-01-19 13:43:00,
2013-01-19 08:48:00,35.3,30.1,30.48,North,4,4.0,7.0,81,0.00,,---,0.00,VWS V14.00,2013-01-19 13:48:00,
2013-01-19 08:53:00,35.8,30.2,30.48,North,4,2.0,7.0,80,0.00,,---,0.00,VWS V14.00,2013-01-19 13:53:00,
2013-01-19 08:58:00,36.2,30.3,30.49,North,358,2.0,2.0,79,0.00,,---,0.00,VWS V14.00,2013-01-19 13:58:00,
2013-01-19 09:03:00,36.7,30.2,30.49,NNE,26,2.0,5.0,77,0.00,,---,0.00,VWS V14.00,2013-01-19 14:03:00,
2013-01-19 09:08:00,37.3,30.4,30.49,NNE,16,5.0,7.0,76,0.00,,---,0.00,VWS V14.00,2013-01-19 14:08:00,
2013-01-19 09:13:00,37.8,30.3,30.49,NNE,16,6.0,9.0,74,0.00,,---,0.00,VWS V14.00,2013-01-19 14:13:00,
2013-01-19 09:18:00,38.1,29.5,30.49,NE,45,4.0,9.0,71,0.00,,---,0.00,VWS V14.00,2013-01-19 14:18:00,
2013-01-19 09:23:00,38.3,29.0,30.49,NE,38,7.0,11.0,69,0.00,,---,0.00,VWS V14.00,2013-01-19 14:23:00,
2013-01-19 09:28:00,38.5,29.2,30.49,NNE,12,6.0,7.0,69,0.00,,---,0.00,VWS V14.00,2013-01-19 14:28:00,
2013-01-19 09:33:00,38.8,29.5,30.49,North,4,5.0,7.0,69,0.00,,---,0.00,VWS V14.00,2013-01-19 14:33:00,
2013-01-19 09:38:00,39.2,29.9,30.50,NNE,12,3.0,7.0,69,0.00,,---,0.00,VWS V14.00,2013-01-19 14:38:00,
2013-01-19 09:43:00,39.6,29.6,30.50,North,10,4.0,7.0,67,0.00,,---,0.00,VWS V14.00,2013-01-19 14:43:00,
2013-01-19 09:48:00,40.0,29.6,30.50,NNE,24,5.0,7.0,66,0.00,,---,0.00,VWS V14.00,2013-01-19 14:48:00,
2013-01-19 09:53:00,40.5,30.0,30.50,North,8,5.0,7.0,66,0.00,,---,0.00,VWS V14.00,2013-01-19 14:53:00,
2013-01-19 09:58:00,41.1,30.2,30.50,NNE,21,2.0,3.0,65,0.00,,---,0.00,VWS V14.00,2013-01-19 14:58:00,
2013-01-19 10:03:00,42.0,30.3,30.50,NNE,27,3.0,7.0,63,0.00,,---,0.00,VWS V14.00,2013-01-19 15:03:00,
2013-01-19 10:08:00,42.5,31.2,30.50,NNE,29,4.0,7.0,64,0.00,,---,0.00,VWS V14.00,2013-01-19 15:08:00,
2013-01-19 10:13:00,43.0,30.5,30.50,NNE,30,3.0,9.0,61,0.00,,---,0.00,VWS V14.00,2013-01-19 15:13:00,
2013-01-19 10:18:00,43.5,29.7,30.49,NNW,339,9.0,10.0,58,0.00,,---,0.00,VWS V14.00,2013-01-19 15:18:00,
2013-01-19 10:23:00,43.7,29.9,30.49,NNE,25,6.0,10.0,58,0.00,,---,0.00,VWS V14.00,2013-01-19 15:23:00,
2013-01-19 10:28:00,44.1,29.9,30.49,North,11,6.0,7.0,57,0.00,,---,0.00,VWS V14.00,2013-01-19 15:28:00,
2013-01-19 10:34:00,44.3,29.2,30.48,NNE,16,6.0,9.0,55,0.00,,---,0.00,VWS V14.00,2013-01-19 15:34:00,
2013-01-19 10:39:00,44.5,29.8,30.48,NNE,21,5.0,9.0,56,0.00,,---,0.00,VWS V14.00,2013-01-19 15:39:00,
2013-01-19 10:43:00,45.2,29.1,30.48,NNE,13,4.0,9.0,53,0.00,,---,0.00,VWS V14.00,2013-01-19 15:43:00,
2013-01-19 10:49:00,45.8,29.2,30.48,NNE,14,3.0,9.0,52,0.00,,---,0.00,VWS V14.00,2013-01-19 15:49:00,
2013-01-19 10:54:00,46.0,29.8,30.47,NNW,345,5.0,9.0,53,0.00,,---,0.00,VWS V14.00,2013-01-19 15:54:00,
2013-01-19 10:59:00,46.1,29.5,30.47,North,349,3.0,6.0,52,0.00,,---,0.00,VWS V14.00,2013-01-19 15:59:00,
2013-01-19 11:04:00,46.0,29.4,30.47,NNW,335,4.0,7.0,52,0.00,,---,0.00,VWS V14.00,2013-01-19 16:04:00,
2013-01-19 11:09:00,46.2,29.1,30.46,NNE,14,4.0,7.0,51,0.00,,---,0.00,VWS V14.00,2013-01-19 16:09:00,
2013-01-19 11:14:00,46.2,29.6,30.46,North,352,3.0,7.0,52,0.00,,---,0.00,VWS V14.00,2013-01-19 16:14:00,
2013-01-19 11:19:00,46.2,29.6,30.46,North,10,1.0,7.0,52,0.00,,---,0.00,VWS V14.00,2013-01-19 16:19:00,
2013-01-19 11:24:00,46.3,30.6,30.45,North,352,2.0,7.0,54,0.00,,---,0.00,VWS V14.00,2013-01-19 16:24:00,
2013-01-19 11:29:00,46.4,29.8,30.45,North,358,2.0,3.0,52,0.00,,---,0.00,VWS V14.00,2013-01-19 16:29:00,
2013-01-19 11:34:00,46.5,30.3,30.45,NNW,335,2.0,4.0,53,0.00,,---,0.00,VWS V14.00,2013-01-19 16:34:00,
2013-01-19 11:39:00,46.7,30.0,30.44,NNW,339,0.0,4.0,52,0.00,,---,0.00,VWS V14.00,2013-01-19 16:39:00,
2013-01-19 11:44:00,46.8,29.6,30.43,North,356,2.0,4.0,51,0.00,,---,0.00,VWS V14.00,2013-01-19 16:44:00,
2013-01-19 11:49:00,47.2,30.0,30.43,North,6,3.0,4.0,51,0.00,,---,0.00,VWS V14.00,2013-01-19 16:49:00,
2013-01-19 11:54:00,47.7,29.5,30.42,NE,34,2.0,5.0,49,0.00,,---,0.00,VWS V14.00,2013-01-19 16:54:00,
2013-01-19 11:59:00,47.9,30.2,30.42,NNE,25,0.0,0.0,50,0.00,,---,0.00,VWS V14.00,2013-01-19 16:59:00,
2013-01-19 12:04:00,48.3,31.0,30.42,NNE,27,2.0,4.0,51,0.00,,---,0.00,VWS V14.00,2013-01-19 17:04:00,
2013-01-19 12:09:00,48.8,32.0,30.41,North,354,3.0,4.0,52,0.00,,---,0.00,VWS V14.00,2013-01-19 17:09:00,
2013-01-19 12:14:00,49.5,33.1,30.40,NNE,13,1.0,4.0,53,0.00,,---,0.00,VWS V14.00,2013-01-19 17:14:00,
2013-01-19 12:19:00,50.6,34.1,30.40,NW,315,4.0,5.0,53,0.00,,---,0.00,VWS V14.00,2013-01-19 17:19:00,
2013-01-19 12:24:00,51.1,35.5,30.40,West,272,4.0,5.0,55,0.00,,---,0.00,VWS V14.00,2013-01-19 17:24:00,
2013-01-19 12:29:00,51.8,35.2,30.39,WNW,289,2.0,2.0,53,0.00,,---,0.00,VWS V14.00,2013-01-19 17:29:00,
2013-01-19 12:34:00,52.4,34.8,30.39,NNW,347,2.0,4.0,51,0.00,,---,0.00,VWS V14.00,2013-01-19 17:34:00,
2013-01-19 12:39:00,52.9,36.2,30.38,WNW,287,4.0,5.0,53,0.00,,---,0.00,VWS V14.00,2013-01-19 17:39:00,
2013-01-19 12:44:00,53.6,35.4,30.38,WNW,285,2.0,5.0,50,0.00,,---,0.00,VWS V14.00,2013-01-19 17:44:00,
2013-01-19 12:49:00,54.1,35.9,30.37,North,354,2.0,5.0,50,0.00,,---,0.00,VWS V14.00,2013-01-19 17:49:00,
2013-01-19 12:54:00,54.3,36.1,30.37,NE,48,1.0,5.0,50,0.00,,---,0.00,VWS V14.00,2013-01-19 17:54:00,
2013-01-19 12:59:00,54.5,35.8,30.36,WNW,293,2.0,5.0,49,0.00,,---,0.00,VWS V14.00,2013-01-19 17:59:00,
2013-01-19 13:04:00,54.5,36.3,30.36,WNW,285,3.0,5.0,50,0.00,,---,0.00,VWS V14.00,2013-01-19 18:04:00,
2013-01-19 13:09:00,54.5,36.3,30.36,WNW,285,0.0,5.0,50,0.00,,---,0.00,VWS V14.00,2013-01-19 18:09:00,
2013-01-19 13:14:00,55.1,36.3,30.35,North,354,4.0,6.0,49,0.00,,---,0.00,VWS V14.00,2013-01-19 18:14:00,
2013-01-19 13:19:00,55.3,36.5,30.35,North,359,1.0,6.0,49,0.00,,---,0.00,VWS V14.00,2013-01-19 18:19:00,
2013-01-19 13:24:00,55.6,36.8,30.35,NW,325,0.0,6.0,49,0.00,,---,0.00,VWS V14.00,2013-01-19 18:24:00,
2013-01-19 13:29:00,56.2,37.3,30.34,West,275,0.0,3.0,49,0.00,,---,0.00,VWS V14.00,2013-01-19 18:29:00,
2013-01-19 13:34:00,56.9,38.5,30.34,West,266,1.0,3.0,50,0.00,,---,0.00,VWS V14.00,2013-01-19 18:34:00,
2013-01-19 13:39:00,57.5,39.0,30.34,ESE,108,0.0,3.0,50,0.00,,---,0.00,VWS V14.00,2013-01-19 18:39:00,
2013-01-19 13:45:00,57.7,39.2,30.34,WNW,299,3.0,6.0,50,0.00,,---,0.00,VWS V14.00,2013-01-19 18:45:00,
2013-01-19 13:50:00,57.3,39.3,30.33,North,354,1.0,6.0,51,0.00,,---,0.00,VWS V14.00,2013-01-19 18:50:00,
2013-01-19 13:55:00,57.5,38.5,30.33,North,355,0.0,6.0,49,0.00,,---,0.00,VWS V14.00,2013-01-19 18:55:00,
2013-01-19 14:00:00,57.6,38.6,30.33,North,356,2.0,4.0,49,0.00,,---,0.00,VWS V14.00,2013-01-19 19:00:00,
2013-01-19 14:05:00,57.5,39.0,30.32,ENE,69,1.0,4.0,50,0.00,,---,0.00,VWS V14.00,2013-01-19 19:05:00,
2013-01-19 14:10:00,57.7,40.2,30.32,ESE,108,0.0,4.0,52,0.00,,---,0.00,VWS V14.00,2013-01-19 19:10:00,
2013-01-19 14:15:00,58.5,40.5,30.31,South,191,0.0,4.0,51,0.00,,---,0.00,VWS V14.00,2013-01-19 19:15:00,
2013-01-19 14:20:00,58.8,39.2,30.31,NNE,13,1.0,4.0,48,0.00,,---,0.00,VWS V14.00,2013-01-19 19:20:00,
2013-01-19 14:25:00,58.5,39.9,30.31,WNW,287,2.0,6.0,50,0.00,,---,0.00,VWS V14.00,2013-01-19 19:25:00,
2013-01-19 14:30:00,58.5,39.9,30.31,WNW,287,0.0,1.0,50,0.00,,---,0.00,VWS V14.00,2013-01-19 19:30:00,
2013-01-19 14:35:00,59.2,40.6,30.31,SE,145,2.0,4.0,50,0.00,,---,0.00,VWS V14.00,2013-01-19 19:35:00,
2013-01-19 14:40:00,59.8,41.1,30.30,South,178,1.0,4.0,50,0.00,,---,0.00,VWS V14.00,2013-01-19 19:40:00,
2013-01-19 14:46:00,59.9,40.7,30.30,West,280,4.0,6.0,49,0.00,,---,0.00,VWS V14.00,2013-01-19 19:46:00,
2013-01-19 14:51:00,59.4,40.8,30.30,WNW,289,2.0,6.0,50,0.00,,---,0.00,VWS V14.00,2013-01-19 19:51:00,
2013-01-19 14:56:00,59.5,40.9,30.30,WNW,303,3.0,6.0,50,0.00,,---,0.00,VWS V14.00,2013-01-19 19:56:00,
2013-01-19 15:01:00,59.5,41.4,30.30,NNE,19,0.0,2.0,51,0.00,,---,0.00,VWS V14.00,2013-01-19 20:01:00,
2013-01-19 15:06:00,59.7,41.6,30.30,West,278,3.0,4.0,51,0.00,,---,0.00,VWS V14.00,2013-01-19 20:06:00,
2013-01-19 15:11:00,59.7,41.6,30.30,NW,325,2.0,4.0,51,0.00,,---,0.00,VWS V14.00,2013-01-19 20:11:00,
2013-01-19 15:16:00,59.9,41.8,30.29,SW,229,3.0,7.0,51,0.00,,---,0.00,VWS V14.00,2013-01-19 20:16:00,
2013-01-19 15:21:00,60.0,41.8,30.29,NW,310,2.0,7.0,51,0.00,,---,0.00,VWS V14.00,2013-01-19 20:21:00,
2013-01-19 15:27:00,60.0,41.3,30.29,West,276,0.0,7.0,50,0.00,,---,0.00,VWS V14.00,2013-01-19 20:27:00,
2013-01-19 15:32:00,58.9,43.2,30.29,SE,127,7.0,10.0,56,0.00,,---,0.00,VWS V14.00,2013-01-19 20:32:00,
2013-01-19 15:37:00,57.4,41.8,30.29,SE,131,8.0,12.0,56,0.00,,---,0.00,VWS V14.00,2013-01-19 20:37:00,
2013-01-19 15:42:00,56.3,42.6,30.29,SE,129,7.0,12.0,60,0.00,,---,0.00,VWS V14.00,2013-01-19 20:42:00,
2013-01-19 15:47:00,55.5,41.9,30.29,SE,144,5.0,12.0,60,0.00,,---,0.00,VWS V14.00,2013-01-19 20:47:00,
2013-01-19 15:52:00,55.1,42.3,30.29,SSE,151,7.0,12.0,62,0.00,,---,0.00,VWS V14.00,2013-01-19 20:52:00,
2013-01-19 15:58:00,54.4,42.1,30.29,SE,137,5.0,12.0,63,0.00,,---,0.00,VWS V14.00,2013-01-19 20:58:00,
2013-01-19 16:03:00,53.8,41.9,30.29,SSE,149,4.0,9.0,64,0.00,,---,0.00,VWS V14.00,2013-01-19 21:03:00,
2013-01-19 16:08:00,53.6,42.5,30.29,SE,127,5.0,9.0,66,0.00,,---,0.00,VWS V14.00,2013-01-19 21:08:00,
2013-01-19 16:13:00,53.4,43.1,30.28,SE,135,3.0,9.0,68,0.00,,---,0.00,VWS V14.00,2013-01-19 21:13:00,
2013-01-19 16:18:00,53.1,43.2,30.28,SE,135,6.0,9.0,69,0.00,,---,0.00,VWS V14.00,2013-01-19 21:18:00,
2013-01-19 16:23:00,52.9,43.0,30.28,SE,131,5.0,9.0,69,0.00,,---,0.00,VWS V14.00,2013-01-19 21:23:00,
2013-01-19 16:28:00,52.8,43.7,30.28,SE,140,5.0,5.0,71,0.00,,---,0.00,VWS V14.00,2013-01-19 21:28:00,
2013-01-19 16:33:00,52.8,44.0,30.28,SE,135,4.0,7.0,72,0.00,,---,0.00,VWS V14.00,2013-01-19 21:33:00,
2013-01-19 16:39:00,52.9,44.8,30.28,SE,135,5.0,7.0,74,0.00,,---,0.00,VWS V14.00,2013-01-19 21:39:00,
2013-01-19 16:45:00,53.1,45.4,30.28,SE,131,6.0,7.0,75,0.00,,---,0.00,VWS V14.00,2013-01-19 21:45:00,
2013-01-19 16:50:00,52.9,45.2,30.28,SE,137,6.0,7.0,75,0.00,,---,0.00,VWS V14.00,2013-01-19 21:50:00,
2013-01-19 16:55:00,52.5,45.2,30.28,SE,135,5.0,7.0,76,0.00,,---,0.00,VWS V14.00,2013-01-19 21:55:00,
2013-01-19 17:00:00,52.1,44.8,30.28,SSE,148,3.0,7.0,76,0.00,,---,0.00,VWS V14.00,2013-01-19 22:00:00,
2013-01-19 17:05:00,51.7,44.7,30.27,SSE,148,4.0,7.0,77,0.00,,---,0.00,VWS V14.00,2013-01-19 22:05:00,
2013-01-19 17:10:00,51.3,44.7,30.27,SE,145,3.0,7.0,78,0.00,,---,0.00,VWS V14.00,2013-01-19 22:10:00,
2013-01-19 17:15:00,51.0,44.7,30.27,SSE,148,3.0,7.0,79,0.00,,---,0.00,VWS V14.00,2013-01-19 22:15:00,
2013-01-19 17:21:00,50.5,44.6,30.27,SE,141,2.0,7.0,80,0.00,,---,0.00,VWS V14.00,2013-01-19 22:21:00,
2013-01-19 17:26:00,50.1,44.2,30.27,SSE,153,1.0,7.0,80,0.00,,---,0.00,VWS V14.00,2013-01-19 22:26:00,
2013-01-19 17:31:00,49.8,44.2,30.26,SSE,154,0.0,1.0,81,0.00,,---,0.00,VWS V14.00,2013-01-19 22:31:00,
2013-01-19 17:37:00,49.5,43.9,30.26,SSE,153,1.0,2.0,81,0.00,,---,0.00,VWS V14.00,2013-01-19 22:37:00,
2013-01-19 17:42:00,49.2,44.0,30.26,SSE,153,0.0,2.0,82,0.00,,---,0.00,VWS V14.00,2013-01-19 22:42:00,
2013-01-19 17:47:00,49.0,43.8,30.26,SSE,153,0.0,2.0,82,0.00,,---,0.00,VWS V14.00,2013-01-19 22:47:00,
2013-01-19 17:52:00,48.7,43.8,30.26,SSE,153,0.0,2.0,83,0.00,,---,0.00,VWS V14.00,2013-01-19 22:52:00,
2013-01-19 17:57:00,48.6,43.7,30.26,SSE,153,0.0,2.0,83,0.00,,---,0.00,VWS V14.00,2013-01-19 22:57:00,
2013-01-19 18:02:00,48.5,43.6,30.26,SSE,153,0.0,0.0,83,0.00,,---,0.00,VWS V14.00,2013-01-19 23:02:00,
2013-01-19 18:07:00,48.4,43.8,30.26,SSE,154,0.0,1.0,84,0.00,,---,0.00,VWS V14.00,2013-01-19 23:07:00,
2013-01-19 18:12:00,48.3,43.7,30.26,SSE,153,0.0,1.0,84,0.00,,---,0.00,VWS V14.00,2013-01-19 23:12:00,
2013-01-19 18:17:00,47.9,43.3,30.26,SSE,153,0.0,1.0,84,0.00,,---,0.00,VWS V14.00,2013-01-19 23:17:00,
2013-01-19 18:23:00,47.0,42.7,30.26,SSE,153,0.0,1.0,85,0.00,,---,0.00,VWS V14.00,2013-01-19 23:23:00,
2013-01-19 18:28:00,46.2,42.5,30.26,SSE,153,0.0,1.0,87,0.00,,---,0.00,VWS V14.00,2013-01-19 23:28:00,
2013-01-19 18:33:00,46.1,42.8,30.26,SSE,153,0.0,0.0,88,0.00,,---,0.00,VWS V14.00,2013-01-19 23:33:00,
2013-01-19 18:38:00,45.8,42.2,30.26,SSE,153,1.0,2.0,87,0.00,,---,0.00,VWS V14.00,2013-01-19 23:38:00,
2013-01-19 18:43:00,45.1,41.8,30.26,SSE,153,0.0,2.0,88,0.00,,---,0.00,VWS V14.00,2013-01-19 23:43:00,
2013-01-19 18:48:00,44.8,41.8,30.26,SSE,153,0.0,2.0,89,0.00,,---,0.00,VWS V14.00,2013-01-19 23:48:00,
2013-01-19 18:53:00,44.7,41.7,30.26,SSE,153,1.0,2.0,89,0.00,,---,0.00,VWS V14.00,2013-01-19 23:53:00,
2013-01-19 18:59:00,44.5,41.5,30.26,SSE,153,0.0,1.0,89,0.00,,---,0.00,VWS V14.00,2013-01-19 23:59:00,
2013-01-19 19:04:00,44.2,41.5,30.26,SSE,153,0.0,1.0,90,0.00,,---,0.00,VWS V14.00,2013-01-20 00:04:00,
2013-01-19 19:09:00,44.1,41.4,30.27,SSE,154,0.0,1.0,90,0.00,,---,0.00,VWS V14.00,2013-01-20 00:09:00,
2013-01-19 19:14:00,43.8,41.1,30.27,SSE,153,2.0,2.0,90,0.00,,---,0.00,VWS V14.00,2013-01-20 00:14:00,
2013-01-19 19:19:00,43.3,40.6,30.27,SSE,153,0.0,2.0,90,0.00,,---,0.00,VWS V14.00,2013-01-20 00:19:00,
2013-01-19 19:24:00,43.2,40.8,30.27,SSE,153,0.0,2.0,91,0.00,,---,0.00,VWS V14.00,2013-01-20 00:24:00,
2013-01-19 19:29:00,43.3,41.1,30.27,SSE,153,0.0,0.0,92,0.00,,---,0.00,VWS V14.00,2013-01-20 00:29:00,
2013-01-19 19:34:00,43.3,41.1,30.27,SSE,153,0.0,0.0,92,0.00,,---,0.00,VWS V14.00,2013-01-20 00:34:00,
2013-01-19 19:39:00,43.2,41.0,30.26,SSE,153,0.0,0.0,92,0.00,,---,0.00,VWS V14.00,2013-01-20 00:39:00,
2013-01-19 19:44:00,43.2,41.0,30.27,SSE,153,0.0,0.0,92,0.00,,---,0.00,VWS V14.00,2013-01-20 00:44:00,
2013-01-19 19:49:00,43.1,40.9,30.27,SSE,154,0.0,0.0,92,0.00,,---,0.00,VWS V14.00,2013-01-20 00:49:00,
2013-01-19 19:54:00,42.8,40.4,30.27,SSE,153,0.0,0.0,91,0.00,,---,0.00,VWS V14.00,2013-01-20 00:54:00,
2013-01-19 19:59:00,42.6,40.2,30.27,SSE,153,0.0,0.0,91,0.00,,---,0.00,VWS V14.00,2013-01-20 00:59:00,
2013-01-19 20:04:00,42.2,39.8,30.27,SSE,153,0.0,0.0,91,0.00,,---,0.00,VWS V14.00,2013-01-20 01:04:00,
2013-01-19 20:09:00,42.0,39.6,30.27,SSE,154,0.0,0.0,91,0.00,,---,0.00,VWS V14.00,2013-01-20 01:09:00,
2013-01-19 20:14:00,41.8,39.7,30.26,SSE,153,0.0,0.0,92,0.00,,---,0.00,VWS V14.00,2013-01-20 01:14:00,
2013-01-19 20:19:00,41.7,39.5,30.26,SSE,153,0.0,0.0,92,0.00,,---,0.00,VWS V14.00,2013-01-20 01:19:00,
2013-01-19 20:24:00,41.8,39.9,30.26,SSE,153,0.0,0.0,93,0.00,,---,0.00,VWS V14.00,2013-01-20 01:24:00,
2013-01-19 20:29:00,42.0,40.1,30.26,SSE,153,0.0,0.0,93,0.00,,---,0.00,VWS V14.00,2013-01-20 01:29:00,
2013-01-19 20:35:00,41.9,39.8,30.26,SSE,153,0.0,0.0,92,0.00,,---,0.00,VWS V14.00,2013-01-20 01:35:00,
2013-01-19 20:40:00,42.0,40.1,30.26,SSE,153,0.0,0.0,93,0.00,,---,0.00,VWS V14.00,2013-01-20 01:40:00,
2013-01-19 20:45:00,41.9,40.0,30.25,SSE,154,0.0,0.0,93,0.00,,---,0.00,VWS V14.00,2013-01-20 01:45:00,
2013-01-19 20:50:00,41.9,39.8,30.25,SSE,153,0.0,0.0,92,0.00,,---,0.00,VWS V14.00,2013-01-20 01:50:00,
2013-01-19 20:55:00,41.7,39.5,30.25,SSE,153,0.0,0.0,92,0.00,,---,0.00,VWS V14.00,2013-01-20 01:55:00,
2013-01-19 21:00:00,41.5,39.3,30.25,SSE,153,0.0,0.0,92,0.00,,---,0.00,VWS V14.00,2013-01-20 02:00:00,
2013-01-19 21:05:00,41.1,39.0,30.25,SSE,153,0.0,0.0,92,0.00,,---,0.00,VWS V14.00,2013-01-20 02:05:00,
2013-01-19 21:10:00,40.8,38.7,30.25,SSE,154,0.0,0.0,92,0.00,,---,0.00,VWS V14.00,2013-01-20 02:10:00,
2013-01-19 21:15:00,40.7,38.6,30.25,SSE,154,0.0,0.0,92,0.00,,---,0.00,VWS V14.00,2013-01-20 02:15:00,
2013-01-19 21:20:00,40.3,38.2,30.24,SSE,153,0.0,1.0,92,0.00,,---,0.00,VWS V14.00,2013-01-20 02:20:00,
2013-01-19 21:25:00,40.0,37.9,30.24,SSE,153,0.0,1.0,92,0.00,,---,0.00,VWS V14.00,2013-01-20 02:25:00,
2013-01-19 21:30:00,39.9,38.0,30.24,SSE,153,0.0,0.0,93,0.00,,---,0.00,VWS V14.00,2013-01-20 02:30:00,
2013-01-19 21:35:00,39.8,38.0,30.24,SSE,153,0.0,0.0,93,0.00,,---,0.00,VWS V14.00,2013-01-20 02:35:00,
2013-01-19 21:40:00,39.8,38.0,30.24,SSE,154,0.0,0.0,93,0.00,,---,0.00,VWS V14.00,2013-01-20 02:40:00,
2013-01-19 21:45:00,39.8,38.0,30.24,SSE,153,0.0,0.0,93,0.00,,---,0.00,VWS V14.00,2013-01-20 02:45:00,
2013-01-19 21:50:00,39.8,38.0,30.24,SSE,154,0.0,0.0,93,0.00,,---,0.00,VWS V14.00,2013-01-20 02:50:00,
2013-01-19 21:55:00,39.6,37.8,30.24,SSE,153,0.0,0.0,93,0.00,,---,0.00,VWS V14.00,2013-01-20 02:55:00,
2013-01-19 22:00:00,39.5,37.7,30.24,SSE,153,0.0,0.0,93,0.00,,---,0.00,VWS V14.00,2013-01-20 03:00:00,
2013-01-19 22:05:00,39.7,38.1,30.24,SSE,153,0.0,0.0,94,0.00,,---,0.00,VWS V14.00,2013-01-20 03:05:00,
2013-01-19 22:10:00,39.8,38.2,30.24,SSE,153,0.0,0.0,94,0.00,,---,0.00,VWS V14.00,2013-01-20 03:10:00,
2013-01-19 22:15:00,40.1,38.5,30.23,SSE,153,0.0,0.0,94,0.00,,---,0.00,VWS V14.00,2013-01-20 03:15:00,
2013-01-19 22:20:00,39.9,38.0,30.23,SSE,154,0.0,0.0,93,0.00,,---,0.00,VWS V14.00,2013-01-20 03:20:00,
2013-01-19 22:26:00,39.7,37.8,30.23,SSE,153,0.0,0.0,93,0.00,,---,0.00,VWS V14.00,2013-01-20 03:26:00,
2013-01-19 22:31:00,39.5,37.7,30.23,SSE,153,0.0,0.0,93,0.00,,---,0.00,VWS V14.00,2013-01-20 03:31:00,
2013-01-19 22:36:00,39.3,37.5,30.23,SSE,153,0.0,1.0,93,0.00,,---,0.00,VWS V14.00,2013-01-20 03:36:00,
2013-01-19 22:41:00,39.3,37.5,30.23,SSE,153,0.0,1.0,93,0.00,,---,0.00,VWS V14.00,2013-01-20 03:41:00,
2013-01-19 22:46:00,39.3,37.7,30.23,SSE,161,2.0,2.0,94,0.00,,---,0.00,VWS V14.00,2013-01-20 03:46:00,
2013-01-19 22:51:00,39.7,38.1,30.23,SW,227,1.0,3.0,94,0.00,,---,0.00,VWS V14.00,2013-01-20 03:51:00,
2013-01-19 22:56:00,40.2,38.9,30.23,SW,229,1.0,3.0,95,0.00,,---,0.00,VWS V14.00,2013-01-20 03:56:00,
2013-01-19 23:01:00,40.1,38.5,30.23,SW,233,1.0,3.0,94,0.00,,---,0.00,VWS V14.00,2013-01-20 04:01:00,
2013-01-19 23:06:00,40.0,38.4,30.23,SW,233,0.0,3.0,94,0.00,,---,0.00,VWS V14.00,2013-01-20 04:06:00,
2013-01-19 23:11:00,39.7,38.1,30.23,SW,233,0.0,3.0,94,0.00,,---,0.00,VWS V14.00,2013-01-20 04:11:00,
2013-01-19 23:16:00,40.0,38.7,30.23,SW,233,0.0,3.0,95,0.00,,---,0.00,VWS V14.00,2013-01-20 04:16:00,
2013-01-19 23:21:00,40.3,39.0,30.23,SW,233,0.0,3.0,95,0.00,,---,0.00,VWS V14.00,2013-01-20 04:21:00,
2013-01-19 23:27:00,40.2,38.6,30.22,SW,233,0.0,3.0,94,0.00,,---,0.00,VWS V14.00,2013-01-20 04:27:00,
2013-01-19 23:32:00,39.8,38.2,30.22,SW,233,0.0,0.0,94,0.00,,---,0.00,VWS V14.00,2013-01-20 04:32:00,
2013-01-19 23:37:00,39.5,37.9,30.22,SW,233,1.0,2.0,94,0.00,,---,0.00,VWS V14.00,2013-01-20 04:37:00,
2013-01-19 23:42:00,39.9,38.6,30.22,SW,233,1.0,2.0,95,0.00,,---,0.00,VWS V14.00,2013-01-20 04:42:00,
2013-01-19 23:47:00,40.4,39.1,30.21,SW,233,0.0,2.0,95,0.00,,---,0.00,VWS V14.00,2013-01-20 04:47:00,
2013-01-19 23:52:00,40.4,39.1,30.21,SW,233,0.0,2.0,95,0.00,,---,0.00,VWS V14.00,2013-01-20 04:52:00,
2013-01-19 23:58:00,40.4,39.1,30.21,SW,233,0.0,2.0,95,0.00,,---,0.00,VWS V14.00,2013-01-20 04:58:00,